createdAt,value
2018-12-24T00:02:14.190Z,95.00
2018-12-24T00:04:41.606Z,94.50
2018-12-24T00:07:09.341Z,94.50
2018-12-24T00:09:36.672Z,93.90
2018-12-24T00:12:07.132Z,94.10
2018-12-24T00:14:34.178Z,94.40
2018-12-24T00:17:01.965Z,94.30
2018-12-24T00:19:29.250Z,94.20
2018-12-24T00:21:56.561Z,94.40
2018-12-24T00:24:23.979Z,95.10
2018-12-24T00:26:51.676Z,95.50
2018-12-24T00:29:19.287Z,95.00
2018-12-24T00:31:46.701Z,95.10
2018-12-24T00:34:14.074Z,95.10
2018-12-24T00:36:41.380Z,94.80
2018-12-24T00:39:08.797Z,95.00
2018-12-24T00:41:36.115Z,94.90
2018-12-24T00:44:03.498Z,94.50
2018-12-24T00:46:30.831Z,94.30
2018-12-24T00:48:58.198Z,94.40
2018-12-24T00:51:25.485Z,93.70
2018-12-24T00:53:53.285Z,94.00
2018-12-24T00:56:20.600Z,94.00
2018-12-24T00:58:48.003Z,94.30
2018-12-24T01:01:15.425Z,93.90
2018-12-24T01:03:42.792Z,93.70
2018-12-24T01:06:10.093Z,93.00
2018-12-24T01:08:37.410Z,93.10
2018-12-24T01:11:04.707Z,93.00
2018-12-24T01:13:32.060Z,93.50
2018-12-24T01:15:59.678Z,93.40
2018-12-24T01:18:27.086Z,93.10
2018-12-24T01:20:54.477Z,93.10
2018-12-24T01:23:21.947Z,93.60
2018-12-24T01:25:49.313Z,93.30
2018-12-24T01:28:17.354Z,94.20
2018-12-24T01:30:44.636Z,94.10
2018-12-24T01:33:14.431Z,94.70
2018-12-24T01:35:41.820Z,94.70
2018-12-24T01:38:09.478Z,94.40
2018-12-24T01:40:36.890Z,94.90
2018-12-24T01:43:04.292Z,94.90
2018-12-24T01:45:31.599Z,95.10
2018-12-24T01:47:59.007Z,94.80
2018-12-24T01:50:26.311Z,94.90
2018-12-24T01:52:53.639Z,95.50
2018-12-24T01:55:21.054Z,95.50
2018-12-24T01:57:48.347Z,95.80
2018-12-24T02:00:15.762Z,95.00
2018-12-24T02:02:43.064Z,95.30
2018-12-24T02:05:10.474Z,95.10
2018-12-24T02:07:37.921Z,95.70
2018-12-24T02:10:05.292Z,95.90
2018-12-24T02:12:32.916Z,95.50
2018-12-24T02:15:00.346Z,95.70
2018-12-24T02:17:27.646Z,95.50
2018-12-24T02:19:54.982Z,95.40
2018-12-24T02:22:22.378Z,95.70
2018-12-24T02:24:49.788Z,95.60
2018-12-24T02:27:17.073Z,95.10
2018-12-24T02:29:44.406Z,95.30
2018-12-24T02:32:12.092Z,95.30
2018-12-24T02:34:39.510Z,95.70
2018-12-24T02:37:06.921Z,96.00
2018-12-24T02:39:35.150Z,96.20
2018-12-24T02:42:02.538Z,96.30
2018-12-24T02:44:30.158Z,96.70
2018-12-24T02:46:57.535Z,96.60
2018-12-24T02:49:24.867Z,95.90
2018-12-24T02:51:52.471Z,96.10
2018-12-24T02:54:19.814Z,96.50
2018-12-24T02:56:47.138Z,97.10
2018-12-24T02:59:15.919Z,97.10
2018-12-24T03:01:43.256Z,95.40
2018-12-24T03:04:10.651Z,90.80
2018-12-24T03:06:38.032Z,90.80
2018-12-24T03:09:05.970Z,92.80
2018-12-24T03:11:33.466Z,92.30
2018-12-24T03:14:00.877Z,92.40
2018-12-24T03:16:28.246Z,93.80
2018-12-24T03:18:55.512Z,94.50
2018-12-24T03:21:22.931Z,92.70
2018-12-24T03:23:50.350Z,91.50
2018-12-24T03:26:17.740Z,93.80
2018-12-24T03:28:45.094Z,93.40
2018-12-24T03:31:12.432Z,91.10
2018-12-24T03:33:39.809Z,92.60
2018-12-24T03:36:07.087Z,93.80
2018-12-24T03:38:34.481Z,93.30
2018-12-24T03:41:01.764Z,91.10
2018-12-24T03:43:29.162Z,92.60
2018-12-24T03:45:56.512Z,91.70
2018-12-24T03:48:23.931Z,91.00
2018-12-24T03:50:51.281Z,92.00
2018-12-24T03:53:18.696Z,92.50
2018-12-24T03:55:46.114Z,89.60
2018-12-24T03:58:13.712Z,91.30
2018-12-24T04:00:41.113Z,90.90
2018-12-24T04:03:08.500Z,91.30
2018-12-24T04:05:35.758Z,90.80
2018-12-24T04:08:03.254Z,91.80
2018-12-24T04:10:30.620Z,90.40
2018-12-24T04:12:57.900Z,88.80
2018-12-24T04:15:25.175Z,90.10
2018-12-24T04:17:52.586Z,88.30
2018-12-24T04:20:19.970Z,87.70
2018-12-24T04:22:47.556Z,89.50
2018-12-24T04:25:14.938Z,90.30
2018-12-24T04:27:42.335Z,87.40
2018-12-24T04:30:09.716Z,89.20
2018-12-24T04:32:36.998Z,88.20
2018-12-24T04:35:04.260Z,89.70
2018-12-24T04:37:31.638Z,88.50
2018-12-24T04:39:58.936Z,88.20
2018-12-24T04:42:26.224Z,89.60
2018-12-24T04:44:53.624Z,88.70
2018-12-24T04:47:20.989Z,88.20
2018-12-24T04:49:48.379Z,85.50
2018-12-24T04:52:15.761Z,87.00
2018-12-24T04:54:43.074Z,88.20
2018-12-24T04:57:10.478Z,88.20
2018-12-24T04:59:37.837Z,85.90
2018-12-24T05:02:05.107Z,87.20
2018-12-24T05:04:32.385Z,88.10
2018-12-24T05:06:59.679Z,86.80
2018-12-24T05:09:27.057Z,85.80
2018-12-24T05:11:54.339Z,85.50
2018-12-24T05:14:21.747Z,85.40
2018-12-24T05:16:49.104Z,86.90
2018-12-24T05:19:16.406Z,86.90
2018-12-24T05:21:43.691Z,83.80
2018-12-24T05:24:10.955Z,86.10
2018-12-24T05:26:38.247Z,85.60
2018-12-24T05:29:06.158Z,87.50
2018-12-24T05:31:33.519Z,86.40
2018-12-24T05:34:01.108Z,84.00
2018-12-24T05:36:28.416Z,84.70
2018-12-24T05:38:55.701Z,84.20
2018-12-24T05:41:23.011Z,83.90
2018-12-24T05:43:50.387Z,83.40
2018-12-24T05:46:17.693Z,85.50
2018-12-24T05:48:44.974Z,84.00
2018-12-24T05:51:12.404Z,83.00
2018-12-24T05:53:39.693Z,82.50
2018-12-24T05:56:07.016Z,82.40
2018-12-24T05:58:34.408Z,83.10
2018-12-24T06:01:01.831Z,83.70
2018-12-24T06:03:29.209Z,84.90
2018-12-24T06:05:56.517Z,83.10
2018-12-24T06:08:23.881Z,82.60
2018-12-24T06:10:51.168Z,83.80
2018-12-24T06:13:18.448Z,85.20
2018-12-24T06:15:45.750Z,82.30
2018-12-24T06:18:13.144Z,85.90
2018-12-24T06:20:40.503Z,85.80
2018-12-24T06:23:07.786Z,85.20
2018-12-24T06:25:35.172Z,84.10
2018-12-24T06:28:02.468Z,83.70
2018-12-24T06:30:29.806Z,82.40
2018-12-24T06:32:57.084Z,84.50
2018-12-24T06:35:24.361Z,84.70
2018-12-24T06:37:51.655Z,84.50
2018-12-24T06:40:19.047Z,85.00
2018-12-24T06:42:46.365Z,83.30
2018-12-24T06:45:13.667Z,84.80
2018-12-24T06:47:41.074Z,83.20
2018-12-24T06:50:08.465Z,81.60
2018-12-24T06:52:36.188Z,84.30
2018-12-24T06:55:03.621Z,83.10
2018-12-24T06:57:30.919Z,81.50
2018-12-24T06:59:58.598Z,85.30
2018-12-24T07:02:26.390Z,82.30
2018-12-24T07:04:53.834Z,83.60
2018-12-24T07:07:21.521Z,83.70
2018-12-24T07:09:48.793Z,80.70
2018-12-24T07:12:16.184Z,82.70
2018-12-24T07:14:43.504Z,82.50
2018-12-24T07:17:10.888Z,82.50
2018-12-24T07:19:38.176Z,81.50
2018-12-24T07:22:05.517Z,82.90
2018-12-24T07:24:32.918Z,80.80
2018-12-24T07:27:00.348Z,81.00
2018-12-24T07:29:27.807Z,82.10
2018-12-24T07:31:55.205Z,83.10
2018-12-24T07:34:22.767Z,84.90
2018-12-24T07:36:50.123Z,83.30
2018-12-24T07:39:17.551Z,85.50
2018-12-24T07:41:44.975Z,85.90
2018-12-24T07:44:12.417Z,85.00
2018-12-24T07:46:40.937Z,85.80
2018-12-24T07:49:08.531Z,84.30
2018-12-24T07:51:35.993Z,83.10
2018-12-24T07:54:03.588Z,87.00
2018-12-24T07:56:30.997Z,81.60
2018-12-24T07:58:58.411Z,85.10
2018-12-24T08:01:25.806Z,80.90
2018-12-24T08:03:53.222Z,82.50
2018-12-24T08:06:20.809Z,82.90
2018-12-24T08:08:48.233Z,83.20
2018-12-24T08:11:15.623Z,81.20
2018-12-24T08:13:43.042Z,81.20
2018-12-24T08:16:10.477Z,81.70
2018-12-24T08:18:37.929Z,81.50
2018-12-24T08:21:05.577Z,81.10
2018-12-24T08:23:32.972Z,81.50
2018-12-24T08:26:00.452Z,79.70
2018-12-24T08:28:27.878Z,80.50
2018-12-24T08:30:55.314Z,80.80
2018-12-24T08:33:22.752Z,81.10
2018-12-24T08:35:50.127Z,81.20
2018-12-24T08:38:17.434Z,81.10
2018-12-24T08:40:44.909Z,79.30
2018-12-24T08:43:12.347Z,81.20
2018-12-24T08:45:39.801Z,81.30
2018-12-24T08:48:07.236Z,81.20
2018-12-24T08:50:34.703Z,80.10
2018-12-24T08:53:02.071Z,81.50
2018-12-24T08:55:29.412Z,80.90
2018-12-24T08:57:56.707Z,81.50
2018-12-24T09:00:24.133Z,80.60
2018-12-24T09:02:51.559Z,80.90
2018-12-24T09:05:18.992Z,79.70
2018-12-24T09:07:46.432Z,78.70
2018-12-24T09:10:13.882Z,79.50
2018-12-24T09:12:41.340Z,79.80
2018-12-24T09:15:08.977Z,78.30
2018-12-24T09:17:36.702Z,79.10
2018-12-24T09:20:04.672Z,76.80
2018-12-24T09:22:31.963Z,77.40
2018-12-24T09:24:59.709Z,80.00
2018-12-24T09:27:27.352Z,80.40
2018-12-24T09:29:54.632Z,81.00
2018-12-24T09:32:21.950Z,80.00
2018-12-24T09:34:49.343Z,78.30
2018-12-24T09:37:16.808Z,80.00
2018-12-24T09:39:44.212Z,79.30
2018-12-24T09:42:11.676Z,80.30
2018-12-24T09:44:39.264Z,80.90
2018-12-24T09:47:06.714Z,80.50
2018-12-24T09:49:34.149Z,76.90
2018-12-24T09:52:01.885Z,80.60
2018-12-24T09:54:29.275Z,80.50
2018-12-24T09:56:56.725Z,77.90
2018-12-24T09:59:24.052Z,80.30
2018-12-24T10:01:51.493Z,80.70
2018-12-24T10:04:29.228Z,77.30
2018-12-24T10:07:01.541Z,79.30
2018-12-24T10:09:28.961Z,79.10
2018-12-24T10:11:56.374Z,78.80
2018-12-24T10:14:23.791Z,78.60
2018-12-24T10:16:51.234Z,76.20
2018-12-24T10:19:18.626Z,77.90
2018-12-24T10:21:46.054Z,79.20
2018-12-24T10:24:13.656Z,76.50
2018-12-24T10:26:41.108Z,78.10
2018-12-24T10:29:08.835Z,78.90
2018-12-24T10:31:36.285Z,78.50
2018-12-24T10:34:03.706Z,78.50
2018-12-24T10:36:31.208Z,76.90
2018-12-24T10:38:58.617Z,77.90
2018-12-24T10:41:26.946Z,79.00
2018-12-24T10:43:54.527Z,78.40
2018-12-24T10:46:22.794Z,79.00
2018-12-24T10:48:50.158Z,79.10
2018-12-24T10:51:17.578Z,78.00
2018-12-24T10:53:45.117Z,76.80
2018-12-24T10:56:12.533Z,75.00
2018-12-24T10:58:39.994Z,75.50
2018-12-24T11:01:07.332Z,75.50
2018-12-24T11:03:34.782Z,74.80
2018-12-24T11:06:02.190Z,76.30
2018-12-24T11:08:29.675Z,75.20
2018-12-24T11:10:57.101Z,75.60
2018-12-24T11:13:24.534Z,74.00
2018-12-24T11:15:52.255Z,74.50
2018-12-24T11:18:19.586Z,72.80
2018-12-24T11:20:46.893Z,74.40
2018-12-24T11:23:14.255Z,75.70
2018-12-24T11:25:41.679Z,74.80
2018-12-24T11:28:09.127Z,76.00
2018-12-24T11:30:38.851Z,75.50
2018-12-24T11:33:06.588Z,73.70
2018-12-24T11:35:33.928Z,73.90
2018-12-24T11:38:01.327Z,74.10
2018-12-24T11:40:28.658Z,73.80
2018-12-24T11:42:56.304Z,73.80
2018-12-24T11:45:23.760Z,72.60
2018-12-24T11:47:51.213Z,72.50
2018-12-24T11:50:18.613Z,71.80
2018-12-24T11:52:45.957Z,72.60
2018-12-24T11:55:13.393Z,73.50
2018-12-24T11:57:40.731Z,71.30
2018-12-24T12:00:08.208Z,70.80
2018-12-24T12:02:35.647Z,75.20
2018-12-24T12:05:03.084Z,74.70
2018-12-24T12:07:30.502Z,73.30
2018-12-24T12:09:57.853Z,73.10
2018-12-24T12:12:25.219Z,74.00
2018-12-24T12:14:52.572Z,74.80
2018-12-24T12:17:20.011Z,75.10
2018-12-24T12:19:47.389Z,73.00
2018-12-24T12:22:14.783Z,74.20
2018-12-24T12:24:42.279Z,72.80
2018-12-24T12:27:09.876Z,72.10
2018-12-24T12:29:37.288Z,74.80
2018-12-24T12:32:04.766Z,74.30
2018-12-24T12:34:32.221Z,74.40
2018-12-24T12:36:59.583Z,74.60
2018-12-24T12:39:26.916Z,73.20
2018-12-24T12:41:54.388Z,74.50
2018-12-24T12:44:21.855Z,73.10
2018-12-24T12:46:49.385Z,73.00
2018-12-24T12:49:16.799Z,73.80
2018-12-24T12:51:44.518Z,74.20
2018-12-24T12:54:12.257Z,72.50
2018-12-24T12:56:39.737Z,72.80
2018-12-24T12:59:07.065Z,72.00
2018-12-24T13:01:34.803Z,70.60
2018-12-24T13:04:02.185Z,68.90
2018-12-24T13:06:29.686Z,69.90
2018-12-24T13:08:57.414Z,69.20
2018-12-24T13:11:24.858Z,66.20
2018-12-24T13:13:52.190Z,69.40
2018-12-24T13:16:19.638Z,68.20
2018-12-24T13:18:47.023Z,67.20
2018-12-24T13:21:14.414Z,70.70
2018-12-24T13:23:41.844Z,70.60
2018-12-24T13:26:09.305Z,70.70
2018-12-24T13:28:36.782Z,70.10
2018-12-24T13:31:04.259Z,70.50
2018-12-24T13:33:31.799Z,71.50
2018-12-24T13:35:59.532Z,68.70
2018-12-24T13:38:28.350Z,69.40
2018-12-24T13:40:55.736Z,72.60
2018-12-24T13:43:23.256Z,71.00
2018-12-24T13:45:51.060Z,72.10
2018-12-24T13:48:18.579Z,73.00
2018-12-24T13:50:45.991Z,72.40
2018-12-24T13:53:13.380Z,71.00
2018-12-24T13:55:40.871Z,68.90
2018-12-24T13:58:08.362Z,73.80
2018-12-24T14:00:35.851Z,73.80
2018-12-24T14:03:03.290Z,71.40
2018-12-24T14:05:31.062Z,74.10
2018-12-24T14:07:58.537Z,74.20
2018-12-24T14:10:25.970Z,74.00
2018-12-24T14:12:53.842Z,73.90
2018-12-24T14:15:21.368Z,74.40
2018-12-24T14:17:48.818Z,73.50
2018-12-24T14:20:16.261Z,73.30
2018-12-24T14:22:43.668Z,73.80
2018-12-24T14:25:11.151Z,74.60
2018-12-24T14:27:38.566Z,74.40
2018-12-24T14:30:07.470Z,72.90
2018-12-24T14:32:34.907Z,74.70
2018-12-24T14:35:02.339Z,73.60
2018-12-24T14:37:29.726Z,73.90
2018-12-24T14:39:57.082Z,74.10
2018-12-24T14:42:24.438Z,74.30
2018-12-24T14:44:51.925Z,73.40
2018-12-24T14:47:19.375Z,74.60
2018-12-24T14:49:46.839Z,74.10
2018-12-24T14:52:14.295Z,73.80
2018-12-24T14:54:41.751Z,72.60
2018-12-24T14:57:09.192Z,72.20
2018-12-24T14:59:36.662Z,74.10
2018-12-24T15:02:04.093Z,74.20
2018-12-24T15:04:31.545Z,72.50
2018-12-24T15:06:58.953Z,75.40
2018-12-24T15:09:26.464Z,73.90
2018-12-24T15:11:54.269Z,74.60
2018-12-24T15:14:21.696Z,73.80
2018-12-24T15:16:49.233Z,73.10
2018-12-24T15:19:16.614Z,74.40
2018-12-24T15:21:43.994Z,74.20
2018-12-24T15:24:11.531Z,73.40
2018-12-24T15:26:39.062Z,70.20
2018-12-24T15:29:06.515Z,73.90
2018-12-24T15:31:33.974Z,73.00
2018-12-24T15:34:01.422Z,72.00
2018-12-24T15:36:28.753Z,72.20
2018-12-24T15:38:56.231Z,74.30
2018-12-24T15:41:23.664Z,70.40
2018-12-24T15:43:51.116Z,73.80
2018-12-24T15:46:18.577Z,71.40
2018-12-24T15:48:46.000Z,73.90
2018-12-24T15:51:13.518Z,74.80
2018-12-24T15:53:43.869Z,74.20
2018-12-24T15:56:11.318Z,73.40
2018-12-24T15:58:38.785Z,74.00
2018-12-24T16:01:06.123Z,73.00
2018-12-24T16:03:36.877Z,73.80
2018-12-24T16:06:03.132Z,74.80
2018-12-24T16:08:30.903Z,74.00
2018-12-24T16:10:58.353Z,73.40
2018-12-24T16:13:25.815Z,74.70
2018-12-24T16:15:53.256Z,75.20
2018-12-24T16:18:20.686Z,73.60
2018-12-24T16:20:48.096Z,74.10
2018-12-24T16:23:15.521Z,74.40
2018-12-24T16:25:42.943Z,74.30
2018-12-24T16:28:10.385Z,71.80
2018-12-24T16:30:37.709Z,75.00
2018-12-24T16:33:05.130Z,74.60
2018-12-24T16:35:32.560Z,75.10
2018-12-24T16:38:00.281Z,74.60
2018-12-24T16:40:27.740Z,74.70
2018-12-24T16:42:55.110Z,75.30
2018-12-24T16:45:22.462Z,75.30
2018-12-24T16:47:49.893Z,73.80
2018-12-24T16:50:17.230Z,74.90
2018-12-24T16:52:44.596Z,74.80
2018-12-24T16:55:12.005Z,75.10
2018-12-24T16:57:41.214Z,75.00
2018-12-24T17:00:08.706Z,75.20
2018-12-24T17:02:36.128Z,76.40
2018-12-24T17:05:03.735Z,75.50
2018-12-24T17:07:31.117Z,75.90
2018-12-24T17:09:58.533Z,76.00
2018-12-24T17:12:25.905Z,75.90
2018-12-24T17:14:53.335Z,77.20
2018-12-24T17:17:21.214Z,75.70
2018-12-24T17:19:48.622Z,75.40
2018-12-24T17:22:16.310Z,76.60
2018-12-24T17:24:43.618Z,75.70
2018-12-24T17:27:11.350Z,76.10
2018-12-24T17:29:38.750Z,76.70
2018-12-24T17:32:06.085Z,77.00
2018-12-24T17:34:33.511Z,76.50
2018-12-24T17:37:00.925Z,76.50
2018-12-24T17:39:28.287Z,76.50
2018-12-24T17:41:56.610Z,77.40
2018-12-24T17:44:24.010Z,76.20
2018-12-24T17:46:51.388Z,76.80
2018-12-24T17:49:18.808Z,77.40
2018-12-24T17:51:46.223Z,77.80
2018-12-24T17:54:13.574Z,77.10
2018-12-24T17:56:41.002Z,77.40
2018-12-24T17:59:08.327Z,77.10
2018-12-24T18:01:35.731Z,77.70
2018-12-24T18:04:03.139Z,77.80
2018-12-24T18:06:30.543Z,77.00
2018-12-24T18:08:57.861Z,76.40
2018-12-24T18:11:25.323Z,76.70
2018-12-24T18:13:53.027Z,77.40
2018-12-24T18:16:20.419Z,77.30
2018-12-24T18:18:47.835Z,76.50
2018-12-24T18:21:15.278Z,77.60
2018-12-24T18:23:42.731Z,77.20
2018-12-24T18:26:10.140Z,77.00
2018-12-24T18:28:37.899Z,76.00
2018-12-24T18:31:05.210Z,76.40
2018-12-24T18:33:32.888Z,76.30
2018-12-24T18:36:00.276Z,76.00
2018-12-24T18:38:27.678Z,76.80
2018-12-24T18:40:55.053Z,76.10
2018-12-24T18:43:22.490Z,74.90
2018-12-24T18:45:49.908Z,76.20
2018-12-24T18:48:17.369Z,75.10
2018-12-24T18:50:44.800Z,74.70
2018-12-24T18:53:12.288Z,74.20
2018-12-24T18:55:39.641Z,72.70
2018-12-24T18:58:07.060Z,74.80
2018-12-24T19:00:34.496Z,75.30
2018-12-24T19:03:01.941Z,74.80
2018-12-24T19:05:29.359Z,74.20
2018-12-24T19:07:57.088Z,76.20
2018-12-24T19:10:24.807Z,75.40
2018-12-24T19:12:52.251Z,75.90
2018-12-24T19:15:19.666Z,75.60
2018-12-24T19:17:47.264Z,76.10
2018-12-24T19:20:14.685Z,75.90
2018-12-24T19:22:42.257Z,74.60
2018-12-24T19:25:09.667Z,75.30
2018-12-24T19:27:37.099Z,75.10
2018-12-24T19:30:05.618Z,75.70
2018-12-24T19:32:33.164Z,75.40
2018-12-24T19:35:00.488Z,75.20
2018-12-24T19:37:27.973Z,76.60
2018-12-24T19:39:55.688Z,74.90
2018-12-24T19:42:23.179Z,73.70
2018-12-24T19:44:50.569Z,76.00
2018-12-24T19:47:17.918Z,77.10
2018-12-24T19:49:45.301Z,76.90
2018-12-24T19:52:12.737Z,74.70
2018-12-24T19:54:40.201Z,76.40
2018-12-24T19:57:07.725Z,75.80
2018-12-24T19:59:36.402Z,74.90
2018-12-24T20:02:03.891Z,77.10
2018-12-24T20:04:31.323Z,79.20
2018-12-24T20:06:58.808Z,77.50
2018-12-24T20:09:26.242Z,76.90
2018-12-24T20:11:53.696Z,76.60
2018-12-24T20:14:21.414Z,77.40
2018-12-24T20:16:48.914Z,76.60
2018-12-24T20:19:16.616Z,76.60
2018-12-24T20:21:44.038Z,75.90
2018-12-24T20:24:11.568Z,76.70
2018-12-24T20:26:39.436Z,77.50
2018-12-24T20:29:07.154Z,76.40
2018-12-24T20:31:34.501Z,77.30
2018-12-24T20:34:02.253Z,76.60
2018-12-24T20:36:29.593Z,76.50
2018-12-24T20:38:57.074Z,76.70
2018-12-24T20:41:24.601Z,76.90
2018-12-24T20:43:52.416Z,77.00
2018-12-24T20:46:19.768Z,76.80
2018-12-24T20:48:47.205Z,77.20
2018-12-24T20:51:16.217Z,76.90
2018-12-24T20:53:43.976Z,76.60
2018-12-24T20:56:11.428Z,77.30
2018-12-24T20:58:38.909Z,76.70
2018-12-24T21:01:06.432Z,77.20
2018-12-24T21:03:33.856Z,77.30
2018-12-24T21:06:01.339Z,77.20
2018-12-24T21:08:29.131Z,78.00
2018-12-24T21:10:56.568Z,77.90
2018-12-24T21:13:24.059Z,77.90
2018-12-24T21:15:51.590Z,78.00
2018-12-24T21:18:19.366Z,79.00
2018-12-24T21:20:46.843Z,78.20
2018-12-24T21:23:14.289Z,78.00
2018-12-24T21:25:41.743Z,77.90
2018-12-24T21:28:09.493Z,78.00
2018-12-24T21:30:36.930Z,78.60
2018-12-24T21:33:04.363Z,77.70
2018-12-24T21:35:31.845Z,78.40
2018-12-24T21:37:59.299Z,77.50
2018-12-24T21:40:26.689Z,77.40
2018-12-24T21:42:54.659Z,76.70
2018-12-24T21:45:22.399Z,77.10
2018-12-24T21:47:52.636Z,76.50
2018-12-24T21:50:20.354Z,76.20
2018-12-24T21:52:47.911Z,75.90
2018-12-24T21:55:15.693Z,76.10
2018-12-24T21:57:43.462Z,76.10
2018-12-24T22:00:10.938Z,76.40
2018-12-24T22:02:38.395Z,77.00
2018-12-24T22:05:05.837Z,76.20
2018-12-24T22:07:33.282Z,76.90
2018-12-24T22:10:00.717Z,76.70
2018-12-24T22:12:28.071Z,75.30
2018-12-24T22:14:55.533Z,74.70
2018-12-24T22:17:22.978Z,75.90
2018-12-24T22:19:50.339Z,75.10
2018-12-24T22:22:17.839Z,74.80
2018-12-24T22:24:45.390Z,74.60
2018-12-24T22:27:14.726Z,75.70
2018-12-24T22:29:42.485Z,76.10
2018-12-24T22:32:09.935Z,75.80
2018-12-24T22:34:37.327Z,75.70
2018-12-24T22:37:05.087Z,75.50
2018-12-24T22:39:32.458Z,75.50
2018-12-24T22:41:59.920Z,75.60
2018-12-24T22:44:27.305Z,76.20
2018-12-24T22:46:54.986Z,76.30
2018-12-24T22:49:22.388Z,76.60
2018-12-24T22:51:50.023Z,76.10
2018-12-24T22:54:17.635Z,76.80
2018-12-24T22:56:45.522Z,77.30
2018-12-24T22:59:13.045Z,77.40
2018-12-24T23:01:40.861Z,76.10
2018-12-24T23:04:08.417Z,75.30
2018-12-24T23:06:35.829Z,75.60
2018-12-24T23:09:05.647Z,76.80
2018-12-24T23:11:33.267Z,76.70
2018-12-24T23:14:01.058Z,76.80
2018-12-24T23:16:28.425Z,76.30
2018-12-24T23:18:55.751Z,76.80
2018-12-24T23:21:23.389Z,76.90
2018-12-24T23:23:50.706Z,75.90
2018-12-24T23:26:18.098Z,76.30
2018-12-24T23:28:45.383Z,76.00
2018-12-24T23:31:12.796Z,75.90
2018-12-24T23:33:40.288Z,75.90
2018-12-24T23:36:07.707Z,76.60
2018-12-24T23:38:35.135Z,76.20
2018-12-24T23:41:02.879Z,76.30
2018-12-24T23:43:30.290Z,76.20
2018-12-24T23:45:57.622Z,76.10
2018-12-24T23:48:25.096Z,76.60
2018-12-24T23:50:52.538Z,77.00
2018-12-24T23:53:20.224Z,76.90
2018-12-24T23:55:47.854Z,76.20
2018-12-24T23:58:15.263Z,76.50
